Time;durP1;ratioP1;P1;durP2;ratioP2;P2;SDS_P1;SDS_P2;PMS_P1;PMS_P2;Temp;Humidity;BMP_temperature;BMP_pressure;BME280_temperature;BME280_humidity;BME280_pressure;Samples;Min_cycle;Max_cycle;Signal;HPM_P1;HPM_P2
2023/04/23 00:01:19;;;;;;;26.88;13.65;;;10.90;90.80;;;;;;6214081;22;20023;-78
2023/04/23 00:03:48;;;;;;;26.52;13.93;;;10.90;90.80;;;;;;6268873;22;20092;-78
2023/04/23 00:06:16;;;;;;;21.70;13.52;;;10.90;90.40;;;;;;6212497;22;20076;-78
2023/04/23 00:08:44;;;;;;;25.65;14.77;;;10.80;90.20;;;;;;6238686;22;20438;-78
2023/04/23 00:11:11;;;;;;;25.55;14.50;;;10.90;90.40;;;;;;6238850;22;20394;-76
2023/04/23 00:13:38;;;;;;;24.23;14.32;;;10.80;90.70;;;;;;6264390;22;20119;-78
2023/04/23 00:16:06;;;;;;;24.35;14.40;;;10.80;90.50;;;;;;6213117;22;20023;-78
2023/04/23 00:18:34;;;;;;;30.23;15.55;;;10.70;90.50;;;;;;6240944;22;20355;-78
2023/04/23 00:21:01;;;;;;;27.20;15.32;;;10.80;91.00;;;;;;6236096;22;20398;-76
2023/04/23 00:23:28;;;;;;;28.30;16.17;;;10.70;91.50;;;;;;6236404;22;20363;-76
2023/04/23 00:25:55;;;;;;;32.70;15.57;;;10.60;91.60;;;;;;6209164;22;20070;-77
2023/04/23 00:28:22;;;;;;;33.17;15.93;;;10.60;91.30;;;;;;6235500;22;20020;-76
2023/04/23 00:30:49;;;;;;;31.90;17.02;;;10.60;91.20;;;;;;6233201;22;20024;-76
2023/04/23 00:33:17;;;;;;;31.27;16.73;;;10.50;91.10;;;;;;6208472;22;20523;-76
2023/04/23 00:35:44;;;;;;;28.77;16.60;;;10.50;91.00;;;;;;6232996;22;20834;-76
2023/04/23 00:38:11;;;;;;;30.88;16.05;;;10.50;91.10;;;;;;6210368;22;20033;-76
2023/04/23 00:40:38;;;;;;;31.00;16.20;;;10.50;91.30;;;;;;6206115;22;20020;-76
2023/04/23 00:43:08;;;;;;;32.03;16.42;;;10.50;91.90;;;;;;6231651;22;20032;-77
2023/04/23 00:45:35;;;;;;;26.23;14.68;;;10.50;92.80;;;;;;6233088;22;20027;-76
2023/04/23 00:48:03;;;;;;;28.38;15.10;;;10.40;92.90;;;;;;6235016;22;20019;-76
2023/04/23 00:50:30;;;;;;;29.67;16.35;;;10.40;93.50;;;;;;6232933;22;20016;-76
2023/04/23 00:52:57;;;;;;;31.15;14.52;;;10.30;92.60;;;;;;6232566;22;20139;-77
2023/04/23 00:55:25;;;;;;;26.98;14.43;;;10.40;92.50;;;;;;6237089;22;20012;-76
2023/04/23 00:57:53;;;;;;;24.08;14.02;;;10.30;92.40;;;;;;6235987;22;20023;-76
2023/04/23 01:00:20;;;;;;;25.63;14.57;;;10.30;92.50;;;;;;6233352;22;20024;-76
2023/04/23 01:02:49;;;;;;;26.63;14.55;;;10.30;93.30;;;;;;6231442;22;20011;-76
2023/04/23 01:05:17;;;;;;;27.88;14.93;;;10.20;94.10;;;;;;6233688;22;20027;-76
2023/04/23 01:07:45;;;;;;;26.17;14.13;;;10.20;93.60;;;;;;6232979;22;20047;-76
2023/04/23 01:10:12;;;;;;;25.95;14.00;;;10.20;93.10;;;;;;6236837;22;20039;-76
2023/04/23 01:12:41;;;;;;;24.30;14.77;;;10.20;93.70;;;;;;6234797;22;20028;-78
2023/04/23 01:15:09;;;;;;;26.00;14.23;;;10.10;94.80;;;;;;6235082;22;20510;-78
2023/04/23 01:17:37;;;;;;;26.52;14.18;;;10.10;94.80;;;;;;6210401;22;20020;-77
2023/04/23 01:20:05;;;;;;;25.40;13.07;;;10.10;94.20;;;;;;6239827;22;20397;-78
2023/04/23 01:22:35;;;;;;;25.75;13.63;;;10.00;93.90;;;;;;6235438;22;20034;-78
2023/04/23 01:25:03;;;;;;;30.30;14.30;;;10.00;93.90;;;;;;6240447;22;20122;-77
2023/04/23 01:27:31;;;;;;;25.17;13.20;;;10.00;94.20;;;;;;6234321;22;20023;-78
2023/04/23 01:30:02;;;;;;;27.27;13.40;;;10.00;94.50;;;;;;6234431;22;20511;-78
2023/04/23 01:32:31;;;;;;;24.27;12.75;;;9.90;94.70;;;;;;6234455;22;20054;-78
2023/04/23 01:34:59;;;;;;;22.35;11.80;;;9.90;95.10;;;;;;6262850;22;20016;-78
2023/04/23 01:37:27;;;;;;;24.48;12.82;;;9.90;94.70;;;;;;6265280;22;20035;-78
2023/04/23 01:39:54;;;;;;;22.30;11.95;;;9.90;95.00;;;;;;6234338;22;20344;-78
2023/04/23 01:42:22;;;;;;;23.10;13.02;;;9.80;95.00;;;;;;6234593;22;20024;-78
2023/04/23 01:44:52;;;;;;;24.33;12.43;;;9.80;95.40;;;;;;6235310;22;20047;-78
2023/04/23 01:47:20;;;;;;;27.70;12.50;;;9.80;95.00;;;;;;6212791;22;20090;-78
2023/04/23 01:49:47;;;;;;;23.80;13.55;;;9.80;94.50;;;;;;6211122;22;20553;-78
2023/04/23 01:52:14;;;;;;;24.05;13.52;;;9.80;94.40;;;;;;6210147;22;20019;-78
2023/04/23 01:54:41;;;;;;;24.45;12.63;;;9.70;94.70;;;;;;6234977;22;20028;-78
2023/04/23 01:57:09;;;;;;;23.17;12.57;;;9.70;95.00;;;;;;6210418;22;20027;-78
2023/04/23 01:59:37;;;;;;;25.52;12.88;;;9.70;95.50;;;;;;6234635;22;20027;-78
2023/04/23 02:02:09;;;;;;;23.10;12.75;;;9.70;95.40;;;;;;6209583;22;20031;-78
2023/04/23 02:04:40;;;;;;;23.48;13.23;;;9.60;96.30;;;;;;6211796;22;20626;-78
2023/04/23 02:07:08;;;;;;;21.80;12.63;;;9.60;96.20;;;;;;6234375;22;20023;-78
2023/04/23 02:09:35;;;;;;;24.75;12.65;;;9.60;96.30;;;;;;6261221;22;20457;-78
2023/04/23 02:12:04;;;;;;;22.50;12.35;;;9.60;95.90;;;;;;6235481;22;20059;-78
2023/04/23 02:14:31;;;;;;;24.10;12.07;;;9.60;95.60;;;;;;6207659;22;20027;-78
2023/04/23 02:16:58;;;;;;;29.02;13.18;;;9.50;95.70;;;;;;6209700;22;20020;-78
2023/04/23 02:19:26;;;;;;;28.00;13.90;;;9.50;96.40;;;;;;6235036;22;20027;-78
2023/04/23 02:21:54;;;;;;;25.65;13.40;;;9.50;96.90;;;;;;6263738;22;20019;-78
2023/04/23 02:24:21;;;;;;;20.15;11.70;;;9.40;96.90;;;;;;6236296;22;20027;-78
2023/04/23 02:26:48;;;;;;;24.35;12.23;;;9.40;97.30;;;;;;6234724;22;20039;-78
2023/04/23 02:29:15;;;;;;;23.13;12.25;;;9.40;97.00;;;;;;6211541;22;20435;-78
2023/04/23 02:31:42;;;;;;;20.40;11.60;;;9.40;96.90;;;;;;6236799;22;20020;-78
2023/04/23 02:34:09;;;;;;;23.17;12.55;;;9.40;97.30;;;;;;6239571;22;20024;-78
2023/04/23 02:36:37;;;;;;;21.80;11.63;;;9.40;97.60;;;;;;6239002;22;20025;-78
2023/04/23 02:39:04;;;;;;;23.15;12.68;;;9.30;97.10;;;;;;6209802;22;20354;-78
2023/04/23 02:41:31;;;;;;;21.88;12.30;;;9.30;97.50;;;;;;6210933;22;20038;-78
2023/04/23 02:43:58;;;;;;;20.55;11.43;;;9.30;96.90;;;;;;6210526;22;20113;-78
2023/04/23 02:46:27;;;;;;;21.92;11.57;;;9.30;96.80;;;;;;6210123;22;20791;-78
2023/04/23 02:48:54;;;;;;;21.45;11.65;;;9.20;97.20;;;;;;6210237;22;20531;-78
2023/04/23 02:51:21;;;;;;;22.73;11.85;;;9.20;97.60;;;;;;6210490;22;20343;-78
2023/04/23 02:53:48;;;;;;;25.42;11.80;;;9.20;97.60;;;;;;6234010;22;20018;-78
2023/04/23 02:56:15;;;;;;;22.90;12.05;;;9.20;97.70;;;;;;6207205;22;20026;-77
2023/04/23 02:58:43;;;;;;;19.48;11.43;;;9.20;97.90;;;;;;6209567;22;20051;-78
2023/04/23 03:01:10;;;;;;;21.23;10.73;;;9.10;97.60;;;;;;6239298;22;20023;-78
2023/04/23 03:03:37;;;;;;;22.30;11.15;;;9.10;97.70;;;;;;6232543;22;20043;-78
2023/04/23 03:06:05;;;;;;;26.17;11.70;;;9.10;97.50;;;;;;6234173;22;20031;-78
2023/04/23 03:08:32;;;;;;;23.10;11.10;;;9.00;97.60;;;;;;6209474;22;20334;-78
2023/04/23 03:10:59;;;;;;;24.13;11.20;;;9.00;97.50;;;;;;6234864;22;20103;-78
2023/04/23 03:13:27;;;;;;;21.33;10.77;;;9.00;98.60;;;;;;6235697;22;20015;-78
2023/04/23 03:15:54;;;;;;;19.73;10.45;;;9.00;98.30;;;;;;6213779;22;20016;-78
2023/04/23 03:18:21;;;;;;;20.65;10.20;;;9.00;98.50;;;;;;6237187;22;20030;-77
2023/04/23 03:20:51;;;;;;;18.33;10.10;;;9.00;97.80;;;;;;6232830;22;20111;-78
2023/04/23 03:23:19;;;;;;;19.90;9.48;;;9.00;97.50;;;;;;6234561;22;20020;-78
2023/04/23 03:25:46;;;;;;;15.95;8.75;;;9.00;96.70;;;;;;6236363;22;20023;-77
2023/04/23 03:28:13;;;;;;;14.80;8.57;;;9.00;95.80;;;;;;6238548;22;20023;-78
2023/04/23 03:30:41;;;;;;;19.67;9.00;;;9.00;95.10;;;;;;6233170;22;20309;-78
2023/04/23 03:33:09;;;;;;;14.55;7.82;;;9.00;95.50;;;;;;6208716;22;20434;-78
2023/04/23 03:35:36;;;;;;;15.40;8.38;;;9.00;95.40;;;;;;6235150;22;20034;-78
2023/04/23 03:38:08;;;;;;;13.93;7.63;;;9.00;95.60;;;;;;6234243;22;20040;-78
2023/04/23 03:40:36;;;;;;;15.32;8.25;;;9.00;95.10;;;;;;6233140;22;20358;-78
2023/04/23 03:43:05;;;;;;;13.57;7.75;;;9.00;94.80;;;;;;6213374;22;20568;-78
2023/04/23 03:45:51;;;;;;;16.00;8.75;;;9.00;95.50;;;;;;6213321;22;20123;-78
2023/04/23 03:48:20;;;;;;;15.75;8.40;;;8.90;95.50;;;;;;6232684;22;20024;-78
2023/04/23 03:50:47;;;;;;;15.32;8.38;;;8.90;96.30;;;;;;6232751;22;20065;-78
2023/04/23 03:53:44;;;;;;;23.35;8.45;;;8.90;96.10;;;;;;6228034;22;20290;-78
2023/04/23 03:56:34;;;;;;;20.60;8.65;;;8.80;95.70;;;;;;6211479;22;20039;-77
2023/04/23 03:59:14;;;;;;;15.40;8.15;;;8.80;95.50;;;;;;6211814;22;20077;-78
2023/04/23 04:01:43;;;;;;;13.68;7.85;;;8.90;95.00;;;;;;6234219;22;20023;-78
2023/04/23 04:04:10;;;;;;;14.40;8.05;;;8.80;95.10;;;;;;6208938;22;20515;-78
2023/04/23 04:06:38;;;;;;;16.45;8.77;;;8.80;95.10;;;;;;6216931;22;20131;-78
2023/04/23 04:09:06;;;;;;;18.00;9.18;;;8.80;95.50;;;;;;6213635;22;20359;-78
2023/04/23 04:11:34;;;;;;;16.08;9.15;;;8.80;95.50;;;;;;6241912;22;20095;-78
2023/04/23 04:14:01;;;;;;;15.27;9.05;;;8.80;95.50;;;;;;6263874;22;20016;-78
2023/04/23 04:16:28;;;;;;;15.18;8.82;;;8.90;95.90;;;;;;6264034;22;20015;-78
2023/04/23 04:18:55;;;;;;;14.10;8.70;;;8.90;96.10;;;;;;6211329;22;20377;-78
2023/04/23 04:21:22;;;;;;;17.35;8.88;;;8.80;96.10;;;;;;6237573;22;20095;-78
2023/04/23 04:23:49;;;;;;;15.70;8.15;;;8.90;96.30;;;;;;6238949;22;20465;-78
2023/04/23 04:26:17;;;;;;;15.38;8.75;;;8.90;95.70;;;;;;6236501;22;20028;-78
2023/04/23 04:28:45;;;;;;;16.67;9.43;;;8.90;95.20;;;;;;6214468;22;20134;-78
2023/04/23 04:31:14;;;;;;;15.85;9.30;;;9.00;95.60;;;;;;6239692;22;20066;-77
2023/04/23 04:33:42;;;;;;;17.08;8.95;;;9.00;95.40;;;;;;6214080;22;20364;-77
2023/04/23 04:36:09;;;;;;;15.95;8.70;;;9.00;94.50;;;;;;6212867;22;20421;-78
2023/04/23 04:38:36;;;;;;;17.80;9.35;;;9.00;94.60;;;;;;6237041;22;20028;-78
2023/04/23 04:41:03;;;;;;;16.95;9.07;;;9.10;94.30;;;;;;6210373;22;20023;-77
2023/04/23 04:43:31;;;;;;;15.40;8.15;;;9.10;94.20;;;;;;6235287;22;20026;-78
2023/04/23 04:45:59;;;;;;;13.65;8.80;;;9.10;94.40;;;;;;6209879;22;20403;-78
2023/04/23 04:48:26;;;;;;;14.45;8.98;;;9.20;95.00;;;;;;6210443;22;20034;-78
2023/04/23 04:50:53;;;;;;;17.83;9.20;;;9.20;94.30;;;;;;6235419;22;20020;-78
2023/04/23 04:53:20;;;;;;;14.60;8.45;;;9.30;94.10;;;;;;6210203;22;20081;-78
2023/04/23 04:55:47;;;;;;;18.65;8.75;;;9.30;94.00;;;;;;6210515;22;20035;-78
2023/04/23 04:58:14;;;;;;;15.50;8.18;;;9.30;94.20;;;;;;6236181;22;20466;-78
2023/04/23 05:00:42;;;;;;;13.68;7.20;;;9.40;94.70;;;;;;6211185;22;20026;-78
2023/04/23 05:03:09;;;;;;;14.52;7.07;;;9.50;94.10;;;;;;6211018;22;20451;-77
2023/04/23 05:05:40;;;;;;;11.38;7.10;;;9.50;93.60;;;;;;6212338;22;20344;-78
2023/04/23 05:08:07;;;;;;;14.93;7.95;;;9.50;93.60;;;;;;6210928;22;20038;-78
2023/04/23 05:10:34;;;;;;;13.38;6.82;;;9.60;93.60;;;;;;6234015;22;20026;-78
2023/04/23 05:13:02;;;;;;;14.88;7.72;;;9.70;93.60;;;;;;6233126;22;20026;-78
2023/04/23 05:15:29;;;;;;;12.90;7.35;;;9.80;93.30;;;;;;6230924;22;20024;-78
2023/04/23 05:17:56;;;;;;;13.70;7.75;;;9.80;92.90;;;;;;6207694;22;20019;-78
2023/04/23 05:20:24;;;;;;;13.38;7.18;;;9.80;92.40;;;;;;6206447;22;20576;-78
2023/04/23 05:22:51;;;;;;;15.32;7.25;;;9.90;92.20;;;;;;6213170;22;20383;-78
2023/04/23 05:25:18;;;;;;;11.85;6.57;;;10.00;92.20;;;;;;6207007;22;20026;-78
2023/04/23 05:27:45;;;;;;;12.23;6.93;;;10.10;92.00;;;;;;6212214;22;20445;-78
2023/04/23 05:30:12;;;;;;;10.90;6.65;;;10.20;91.50;;;;;;6208063;22;20035;-78
2023/04/23 05:32:39;;;;;;;11.25;6.75;;;10.30;91.60;;;;;;6214137;22;20439;-78
2023/04/23 05:35:07;;;;;;;11.00;6.47;;;10.40;90.90;;;;;;6232332;22;20383;-78
2023/04/23 05:37:34;;;;;;;12.52;6.55;;;10.50;90.80;;;;;;6210654;22;20090;-78
2023/04/23 05:40:01;;;;;;;12.65;6.65;;;10.50;90.20;;;;;;6209096;22;20030;-78
2023/04/23 05:42:28;;;;;;;8.82;5.72;;;10.60;88.90;;;;;;6233248;22;20039;-78
2023/04/23 05:44:55;;;;;;;10.88;6.15;;;10.70;89.00;;;;;;6233283;22;20020;-78
2023/04/23 05:47:22;;;;;;;12.27;6.03;;;10.80;88.40;;;;;;6208694;22;20443;-78
2023/04/23 05:49:49;;;;;;;11.85;6.75;;;10.80;87.40;;;;;;6260144;22;20027;-79
2023/04/23 05:52:17;;;;;;;13.75;6.57;;;10.90;87.50;;;;;;6211595;22;20016;-78
2023/04/23 05:54:45;;;;;;;12.52;6.13;;;11.10;88.40;;;;;;6235132;22;20325;-78
2023/04/23 05:57:12;;;;;;;10.40;6.88;;;11.20;87.30;;;;;;6207023;22;20024;-78
2023/04/23 05:59:39;;;;;;;10.50;6.38;;;11.30;87.50;;;;;;6208614;22;20045;-78
2023/04/23 06:02:08;;;;;;;11.88;6.78;;;11.50;87.50;;;;;;6231297;22;20042;-78
2023/04/23 06:04:35;;;;;;;9.32;5.88;;;11.60;86.60;;;;;;6234903;22;20554;-77
2023/04/23 06:07:03;;;;;;;11.23;6.32;;;11.80;87.70;;;;;;6232444;22;20157;-78
2023/04/23 06:09:30;;;;;;;12.13;6.47;;;12.00;85.10;;;;;;6259806;22;20043;-77
2023/04/23 06:11:57;;;;;;;10.40;6.05;;;12.10;85.30;;;;;;6212521;22;20024;-78
2023/04/23 06:14:24;;;;;;;12.27;6.22;;;12.30;85.00;;;;;;6233154;22;20340;-79
2023/04/23 06:16:51;;;;;;;9.68;5.57;;;12.50;85.20;;;;;;6237163;22;20020;-78
2023/04/23 06:19:18;;;;;;;11.60;6.20;;;12.70;84.80;;;;;;6206611;22;20023;-79
2023/04/23 06:21:45;;;;;;;10.00;5.63;;;12.90;84.10;;;;;;6208464;22;20031;-78
2023/04/23 06:24:13;;;;;;;9.40;5.40;;;13.10;85.10;;;;;;6205832;22;20095;-79
2023/04/23 06:26:40;;;;;;;8.48;5.53;;;13.30;82.90;;;;;;6236612;22;20020;-78
2023/04/23 06:29:13;;;;;;;10.75;5.70;;;13.40;81.80;;;;;;6211621;22;20476;-78
2023/04/23 06:32:02;;;;;;;8.23;5.20;;;13.60;83.90;;;;;;6210759;22;20533;-78
2023/04/23 06:34:30;;;;;;;9.30;5.30;;;13.80;82.20;;;;;;6208091;22;20469;-78
2023/04/23 06:36:57;;;;;;;9.13;5.55;;;14.00;79.80;;;;;;6209541;22;20023;-78
2023/04/23 06:39:25;;;;;;;8.48;4.85;;;14.10;77.50;;;;;;6231721;22;20338;-78
2023/04/23 06:41:52;;;;;;;8.38;3.95;;;14.30;76.90;;;;;;6204785;22;20024;-78
2023/04/23 06:44:32;;;;;;;6.88;3.97;;;14.50;75.10;;;;;;6230366;22;20020;-79
2023/04/23 06:46:59;;;;;;;7.63;4.32;;;14.60;76.00;;;;;;6206154;22;20024;-78
2023/04/23 06:49:26;;;;;;;8.20;4.32;;;14.80;72.70;;;;;;6206797;22;20073;-78
2023/04/23 06:51:53;;;;;;;7.38;4.28;;;15.00;75.50;;;;;;6203747;22;20024;-76
2023/04/23 06:54:23;;;;;;;6.40;3.72;;;15.00;73.00;;;;;;6233621;22;20028;-78
2023/04/23 06:56:51;;;;;;;6.85;3.78;;;15.10;71.80;;;;;;6232597;22;20388;-78
2023/04/23 06:59:18;;;;;;;5.97;3.72;;;15.30;72.00;;;;;;6231745;22;20016;-77
2023/04/23 07:01:49;;;;;;;8.85;4.05;;;15.30;70.00;;;;;;6229092;22;20023;-78
2023/04/23 07:04:16;;;;;;;7.80;4.15;;;15.50;71.70;;;;;;6204877;22;20423;-78
2023/04/23 07:06:43;;;;;;;10.63;4.15;;;15.60;71.20;;;;;;6207546;22;20028;-77
2023/04/23 07:09:11;;;;;;;5.40;3.40;;;15.80;73.30;;;;;;6234443;22;20047;-78
2023/04/23 07:11:39;;;;;;;8.95;3.88;;;15.90;73.40;;;;;;6205875;22;20608;-78
2023/04/23 07:14:06;;;;;;;9.00;4.25;;;16.00;73.50;;;;;;6205486;22;20030;-78
2023/04/23 07:16:33;;;;;;;4.80;3.72;;;16.20;71.40;;;;;;6207010;22;20162;-77
2023/04/23 07:19:01;;;;;;;7.00;4.10;;;16.40;71.00;;;;;;6231097;22;20519;-75
2023/04/23 07:21:28;;;;;;;7.93;3.10;;;16.60;69.60;;;;;;6203243;22;20130;-78
2023/04/23 07:23:59;;;;;;;5.20;3.38;;;16.80;67.30;;;;;;6235390;22;20015;-77
2023/04/23 07:26:26;;;;;;;4.95;3.22;;;16.90;68.60;;;;;;6232405;22;20343;-77
2023/04/23 07:28:54;;;;;;;8.07;3.85;;;16.90;66.60;;;;;;6231261;22;20034;-78
2023/04/23 07:31:22;;;;;;;8.65;3.50;;;17.00;68.00;;;;;;6205733;22;20024;-78
2023/04/23 07:33:49;;;;;;;7.93;3.58;;;17.10;66.70;;;;;;6204323;22;20019;-76
2023/04/23 07:36:17;;;;;;;4.65;3.05;;;17.10;65.40;;;;;;6231283;22;20023;-76
2023/04/23 07:38:44;;;;;;;4.97;3.25;;;17.20;63.20;;;;;;6206016;22;20457;-76
2023/04/23 07:41:11;;;;;;;5.90;3.45;;;17.40;66.70;;;;;;6207365;22;20447;-78
2023/04/23 07:43:39;;;;;;;5.15;2.90;;;17.50;64.60;;;;;;6229872;22;20027;-77
2023/04/23 07:46:07;;;;;;;5.85;2.72;;;17.50;64.40;;;;;;6233821;22;20397;-78
2023/04/23 07:48:34;;;;;;;6.03;2.63;;;17.70;65.50;;;;;;6204366;22;20026;-77
2023/04/23 07:51:02;;;;;;;4.93;3.17;;;17.70;63.80;;;;;;6232795;22;20020;-77
2023/04/23 07:53:29;;;;;;;6.05;3.58;;;17.90;63.90;;;;;;6231144;22;20499;-77
2023/04/23 07:55:56;;;;;;;4.15;2.92;;;18.00;64.40;;;;;;6232723;22;20490;-78
2023/04/23 07:58:24;;;;;;;7.28;3.38;;;18.10;65.10;;;;;;6207215;22;20027;-75
2023/04/23 08:00:51;;;;;;;5.80;2.80;;;18.10;62.80;;;;;;6228741;22;20023;-76
2023/04/23 08:03:18;;;;;;;7.05;3.17;;;18.10;62.10;;;;;;6230529;22;20450;-76
2023/04/23 08:05:46;;;;;;;5.32;3.33;;;18.20;65.70;;;;;;6208645;22;20055;-78
2023/04/23 08:08:13;;;;;;;5.85;3.08;;;18.40;64.00;;;;;;6230836;22;20024;-75
2023/04/23 08:10:41;;;;;;;4.30;2.80;;;18.40;60.80;;;;;;6206506;22;20304;-77
2023/04/23 08:13:08;;;;;;;4.45;2.65;;;18.50;61.20;;;;;;6265666;22;20015;-78
2023/04/23 08:15:35;;;;;;;5.68;3.15;;;18.70;62.40;;;;;;6207173;22;20026;-77
2023/04/23 08:18:03;;;;;;;4.63;2.58;;;18.70;59.60;;;;;;6236817;22;20138;-77
2023/04/23 08:20:33;;;;;;;4.15;2.83;;;18.90;59.20;;;;;;6235342;22;20028;-79
2023/04/23 08:23:00;;;;;;;4.32;2.50;;;19.10;59.70;;;;;;6232034;22;20019;-79
2023/04/23 08:25:27;;;;;;;5.57;2.85;;;19.10;58.70;;;;;;6194259;22;20430;-78
2023/04/23 08:27:54;;;;;;;8.20;3.20;;;19.10;58.40;;;;;;6261171;22;20034;-78
2023/04/23 08:30:22;;;;;;;8.25;2.75;;;19.10;58.20;;;;;;6208430;22;20019;-79
2023/04/23 08:32:52;;;;;;;4.65;2.65;;;19.10;58.40;;;;;;6234046;22;20057;-76
2023/04/23 08:35:21;;;;;;;5.32;2.85;;;19.20;60.90;;;;;;6232658;22;20347;-75
2023/04/23 08:37:48;;;;;;;3.70;2.90;;;19.40;59.30;;;;;;6229144;22;20016;-78
2023/04/23 08:40:15;;;;;;;3.45;2.60;;;19.30;57.40;;;;;;6262732;22;20041;-77
2023/04/23 08:42:54;;;;;;;5.88;2.72;;;19.40;58.90;;;;;;6261463;22;20015;-77
2023/04/23 08:45:22;;;;;;;6.82;3.22;;;19.40;57.20;;;;;;6233639;22;20027;-75
2023/04/23 08:47:49;;;;;;;5.88;3.25;;;19.50;56.70;;;;;;6262847;22;20020;-79
2023/04/23 08:50:18;;;;;;;6.57;2.88;;;19.50;57.80;;;;;;6233716;22;20640;-77
2023/04/23 08:52:52;;;;;;;4.35;2.47;;;19.60;57.70;;;;;;6235994;22;20020;-77
2023/04/23 08:55:21;;;;;;;5.03;2.80;;;19.70;56.20;;;;;;6230980;22;20020;-78
2023/04/23 08:57:49;;;;;;;5.22;3.00;;;19.80;57.90;;;;;;6204373;22;20047;-77
2023/04/23 09:00:19;;;;;;;3.63;2.50;;;19.90;57.10;;;;;;6231567;22;20016;-78
2023/04/23 09:02:47;;;;;;;4.82;2.60;;;19.80;56.70;;;;;;6233801;22;20019;-78
2023/04/23 09:05:15;;;;;;;11.18;3.33;;;20.00;55.50;;;;;;6205885;22;20030;-77
2023/04/23 09:07:43;;;;;;;6.50;2.70;;;20.10;56.10;;;;;;6230929;22;20439;-79
2023/04/23 09:10:11;;;;;;;4.40;2.30;;;20.20;55.90;;;;;;6235281;22;20428;-80
2023/04/23 09:12:42;;;;;;;6.13;2.47;;;20.20;54.90;;;;;;6233676;22;20020;-77
2023/04/23 09:15:10;;;;;;;4.43;2.30;;;20.20;55.60;;;;;;6204376;22;20065;-78
2023/04/23 09:17:40;;;;;;;7.00;2.80;;;20.30;55.30;;;;;;6231626;22;20453;-77
2023/04/23 09:20:10;;;;;;;3.65;2.78;;;20.20;55.60;;;;;;6232546;22;20459;-75
2023/04/23 09:22:45;;;;;;;6.13;2.45;;;20.20;56.30;;;;;;6234046;22;20042;-76
2023/04/23 09:25:19;;;;;;;7.18;3.33;;;20.30;54.90;;;;;;6211119;22;20077;-79
2023/04/23 09:27:51;;;;;;;3.83;3.20;;;20.50;57.10;;;;;;6206736;22;20210;-76
2023/04/23 09:30:18;;;;;;;7.45;2.88;;;20.50;55.70;;;;;;6206327;22;20020;-75
2023/04/23 09:32:46;;;;;;;5.47;2.60;;;20.50;56.30;;;;;;6236795;22;20345;-78
2023/04/23 09:35:15;;;;;;;4.35;2.85;;;20.50;54.70;;;;;;6262135;22;20820;-78
2023/04/23 09:37:47;;;;;;;4.88;2.63;;;20.60;53.70;;;;;;6232859;22;20332;-77
2023/04/23 09:40:16;;;;;;;;;;;20.70;53.30;;;;;;6232472;22;20019;-77
2023/04/23 09:42:48;;;;;;;4.28;2.47;;;20.90;53.80;;;;;;6230659;22;20183;-79
2023/04/23 09:45:16;;;;;;;5.15;2.35;;;20.90;53.70;;;;;;6203999;22;20358;-77
2023/04/23 09:47:54;;;;;;;6.57;2.90;;;20.90;55.30;;;;;;6228872;22;20027;-76
2023/04/23 09:50:32;;;;;;;5.63;2.30;;;20.70;53.30;;;;;;6230408;22;20595;-78
2023/04/23 09:52:59;;;;;;;5.82;2.50;;;20.80;53.30;;;;;;6206088;22;20069;-78
2023/04/23 09:55:34;;;;;;;4.38;2.53;;;20.90;53.00;;;;;;6232315;22;20099;-77
2023/04/23 09:58:03;;;;;;;3.15;2.00;;;21.00;51.80;;;;;;6203627;22;20028;-80
2023/04/23 10:00:36;;;;;;;4.32;2.28;;;21.10;51.90;;;;;;6205987;22;20020;-77
2023/04/23 10:03:06;;;;;;;4.85;2.75;;;21.20;51.50;;;;;;6204328;22;20127;-77
2023/04/23 10:05:43;;;;;;;3.88;2.65;;;21.30;51.30;;;;;;6205675;22;20027;-76
2023/04/23 10:08:27;;;;;;;6.65;2.90;;;21.40;50.70;;;;;;6234390;22;20050;-78
2023/04/23 10:10:55;;;;;;;4.43;3.00;;;21.30;50.90;;;;;;6231263;22;20019;-78
2023/04/23 10:13:42;;;;;;;4.28;2.05;;;21.20;52.00;;;;;;6238050;22;20108;-78
2023/04/23 10:16:09;;;;;;;4.88;2.25;;;20.50;50.50;;;;;;6229126;22;20016;-77
2023/04/23 10:18:50;;;;;;;4.65;1.95;;;20.90;50.50;;;;;;6205462;22;20015;-78
2023/04/23 10:21:19;;;;;;;2.83;1.80;;;21.20;49.90;;;;;;6256709;22;20470;-78
2023/04/23 10:23:48;;;;;;;4.35;2.15;;;21.30;47.80;;;;;;6205519;22;20077;-77
2023/04/23 10:26:19;;;;;;;3.75;1.63;;;21.60;46.30;;;;;;6206243;22;20306;-77
2023/04/23 10:28:47;;;;;;;3.15;1.73;;;21.50;45.90;;;;;;6205670;22;20031;-78
2023/04/23 10:31:16;;;;;;;2.35;1.60;;;21.70;48.20;;;;;;6227898;22;20107;-78
2023/04/23 10:33:44;;;;;;;2.33;1.60;;;21.80;48.30;;;;;;6256045;22;20011;-77
2023/04/23 10:36:26;;;;;;;3.25;1.83;;;21.80;48.40;;;;;;6210103;22;20051;-78
2023/04/23 10:38:55;;;;;;;2.95;1.77;;;21.80;48.10;;;;;;6232713;22;20026;-78
2023/04/23 10:41:35;;;;;;;4.60;2.72;;;21.80;47.60;;;;;;6208850;22;20031;-80
2023/04/23 10:44:09;;;;;;;4.47;1.98;;;22.00;49.50;;;;;;6233969;22;20067;-77
2023/04/23 10:46:38;;;;;;;4.15;2.30;;;21.80;48.60;;;;;;6210402;22;20378;-80
2023/04/23 10:49:13;;;;;;;6.03;1.85;;;22.00;49.60;;;;;;6205794;22;20438;-79
2023/04/23 10:51:41;;;;;;;3.67;1.77;;;22.10;49.90;;;;;;6206193;22;20020;-79
2023/04/23 10:54:15;;;;;;;4.22;2.22;;;22.20;49.70;;;;;;6211620;22;20425;-77
2023/04/23 10:56:43;;;;;;;4.90;2.70;;;22.20;49.90;;;;;;6207194;22;20529;-77
2023/04/23 10:59:20;;;;;;;3.45;2.15;;;22.10;48.80;;;;;;6206699;22;20347;-78
2023/04/23 11:01:49;;;;;;;4.13;2.58;;;22.20;49.00;;;;;;6259230;22;20450;-79
2023/04/23 11:04:28;;;;;;;4.47;2.28;;;22.10;49.10;;;;;;6234655;22;20028;-76
2023/04/23 11:06:57;;;;;;;7.40;2.58;;;21.50;48.80;;;;;;6234787;22;20050;-77
2023/04/23 11:09:33;;;;;;;3.25;2.00;;;21.40;48.50;;;;;;6230124;22;20530;-78
2023/04/23 11:12:06;;;;;;;4.20;2.33;;;21.40;51.60;;;;;;6238760;22;20015;-78
2023/04/23 11:14:46;;;;;;;3.88;2.95;;;21.90;49.60;;;;;;6208086;22;20016;-77
2023/04/23 11:17:15;;;;;;;4.00;2.45;;;21.90;48.10;;;;;;6230753;22;20025;-77
2023/04/23 11:20:02;;;;;;;5.43;2.30;;;21.40;49.10;;;;;;6207751;22;20023;-78
2023/04/23 11:22:37;;;;;;;3.05;2.08;;;21.10;50.10;;;;;;6204245;22;20349;-78
2023/04/23 11:25:09;;;;;;;6.35;2.42;;;20.80;48.80;;;;;;6206294;22;20032;-79
2023/04/23 11:27:42;;;;;;;3.17;2.22;;;20.70;49.50;;;;;;6229933;22;20470;-76
2023/04/23 11:30:15;;;;;;;2.85;2.13;;;20.70;50.30;;;;;;6204756;22;20433;-79
2023/04/23 11:32:47;;;;;;;7.53;2.40;;;20.70;50.10;;;;;;6234056;22;20020;-78
2023/04/23 11:35:20;;;;;;;2.83;1.88;;;20.80;49.10;;;;;;6205099;22;20110;-79
2023/04/23 11:37:48;;;;;;;3.10;1.92;;;21.60;49.40;;;;;;6234312;22;20443;-77
2023/04/23 11:40:18;;;;;;;5.03;2.33;;;21.70;48.60;;;;;;6214160;22;20462;-78
2023/04/23 11:42:46;;;;;;;3.05;2.05;;;21.40;48.00;;;;;;6210234;22;20038;-78
2023/04/23 11:45:28;;;;;;;4.03;1.90;;;21.20;47.70;;;;;;6209470;22;20024;-78
2023/04/23 11:47:56;;;;;;;3.45;2.00;;;21.20;49.10;;;;;;6207449;22;20063;-77
2023/04/23 11:50:29;;;;;;;4.50;2.22;;;21.50;48.90;;;;;;6204322;22;20441;-78
2023/04/23 11:52:57;;;;;;;4.03;1.98;;;21.40;49.00;;;;;;6207997;22;20031;-79
2023/04/23 11:55:25;;;;;;;2.88;2.00;;;21.30;48.70;;;;;;6214293;22;20078;-79
2023/04/23 11:57:52;;;;;;;3.58;2.08;;;21.10;49.80;;;;;;6212819;22;20030;-78
2023/04/23 12:00:25;;;;;;;3.72;2.50;;;21.00;50.00;;;;;;6214183;22;20019;-78
2023/04/23 12:03:00;;;;;;;2.55;1.65;;;20.90;50.30;;;;;;6240423;22;20028;-79
2023/04/23 12:05:36;;;;;;;4.20;2.20;;;20.80;49.30;;;;;;6210609;22;20033;-78
2023/04/23 12:08:10;;;;;;;3.70;1.92;;;21.00;47.90;;;;;;6211097;22;20028;-78
2023/04/23 12:10:42;;;;;;;5.18;2.20;;;21.90;48.50;;;;;;6211014;22;20027;-79
2023/04/23 12:13:16;;;;;;;6.00;3.25;;;21.70;47.40;;;;;;6217496;22;20031;-78
2023/04/23 12:15:55;;;;;;;5.38;2.25;;;21.50;49.00;;;;;;6266847;22;20486;-78
2023/04/23 12:18:38;;;;;;;4.45;2.10;;;21.60;49.40;;;;;;6218020;22;20090;-77
2023/04/23 12:21:10;;;;;;;4.38;2.45;;;21.30;49.00;;;;;;6273757;22;20067;-78
2023/04/23 12:23:39;;;;;;;4.40;2.40;;;21.80;48.90;;;;;;6213587;22;20110;-77
2023/04/23 12:26:10;;;;;;;4.97;2.25;;;22.30;48.90;;;;;;6211542;22;20022;-77
2023/04/23 12:28:51;;;;;;;4.13;2.30;;;22.50;48.70;;;;;;6214002;22;20028;-76
2023/04/23 12:31:20;;;;;;;3.58;2.10;;;22.60;48.20;;;;;;6235641;22;20024;-77
2023/04/23 12:34:15;;;;;;;5.35;2.17;;;22.20;48.40;;;;;;6209862;22;20447;-77
2023/04/23 12:36:47;;;;;;;2.55;1.40;;;22.30;47.70;;;;;;6216315;22;20098;-78
2023/04/23 12:39:28;;;;;;;7.35;3.03;;;22.60;47.90;;;;;;6208951;22;20130;-78
2023/04/23 12:42:01;;;;;;;5.03;2.10;;;22.80;47.30;;;;;;6215941;22;20467;-77
2023/04/23 12:44:30;;;;;;;2.92;1.90;;;22.80;48.20;;;;;;6212996;22;20030;-78
2023/04/23 12:46:58;;;;;;;2.55;1.70;;;22.90;48.30;;;;;;6211534;22;20027;-77
2023/04/23 12:49:27;;;;;;;2.65;2.38;;;22.70;47.90;;;;;;6213309;22;20027;-77
2023/04/23 12:52:00;;;;;;;3.60;1.98;;;22.40;47.30;;;;;;6215352;22;20045;-77
2023/04/23 12:54:32;;;;;;;2.88;1.90;;;22.20;47.30;;;;;;6208912;22;20426;-78